Decoded Metar for MYNN (NASSAU in BAHAMAS) (IATA:NAS) | Meteo·Mobile Aviation Weather
aviador You're here:

MYNN Decoded Metar

NASSAU in BAHAMAS
Report Time2018-09-21 09:00:00
UTC Time2018-09-21 09:30:28
Flight Rules vfr VFR
Wind090° at 03 kt
W.Decomp.*RWY 09: 3.0 kt HW 0.4 kt RCW
RWY 14: 2.2 kt HW 2 kt LCW
W.Rank090° ranks 1
Current wind is below 090° avg. (6.4)
Visibility9999 m
Phenomena:N/A
Clouds:Scattered 025 Hf
Expected CloudBase > 2,000 ft AGL from Temp-Dew spread
CeilingNone
Temp28°C (ISA +13)
Dew Point23°C (74% RH)
Heat Index31.2°C
QNH1016 hPa
Density Alt1,775 ft
Elevation10 ft
Report Wrong Elevation
Raw Report
MYNN 210900Z 09003KT 9999 SCT025 28/23 A3000=

Extra information for MYNN:More info

Metar Taf Metar & Taf Last 4 Metars F.Rules Stats Wind Profile Meteogram Temp Stats Airport Information Weather charts Add Link Nearby VenuesMetar ALERT Operation Metar Decoded Social comments